createdAt,value
2016-12-12T00:00:06.142Z,0
2016-12-12T00:01:06.048Z,0
2016-12-12T00:02:06.080Z,0
2016-12-12T00:03:06.085Z,0
2016-12-12T00:04:06.211Z,0
2016-12-12T00:05:06.108Z,0
2016-12-12T00:06:09.141Z,0
2016-12-12T00:07:06.090Z,0
2016-12-12T00:08:06.136Z,0
2016-12-12T00:09:06.086Z,0
2016-12-12T00:10:06.142Z,0
2016-12-12T00:11:06.027Z,0
2016-12-12T00:12:06.131Z,0
2016-12-12T00:13:06.022Z,0
2016-12-12T00:14:06.153Z,0
2016-12-12T00:15:06.004Z,0
2016-12-12T00:16:06.153Z,0
2016-12-12T00:17:06.062Z,0
2016-12-12T00:18:06.186Z,0
2016-12-12T00:19:06.161Z,0
2016-12-12T00:20:06.092Z,0
2016-12-12T00:21:06.016Z,0
2016-12-12T00:22:06.197Z,0
2016-12-12T00:23:06.078Z,0
2016-12-12T00:24:06.059Z,0
2016-12-12T00:25:06.247Z,0
2016-12-12T00:26:06.103Z,0
2016-12-12T00:27:16.123Z,0
2016-12-12T00:28:06.191Z,0
2016-12-12T00:29:06.185Z,0
2016-12-12T00:30:06.084Z,0
2016-12-12T00:31:06.273Z,0
2016-12-12T00:32:06.096Z,0
2016-12-12T00:33:06.175Z,0
2016-12-12T00:34:06.052Z,0
2016-12-12T00:35:06.288Z,0
2016-12-12T00:36:06.177Z,0
2016-12-12T00:37:06.138Z,0
2016-12-12T00:38:06.095Z,0
2016-12-12T00:39:06.045Z,0
2016-12-12T00:40:06.856Z,0
2016-12-12T00:41:06.004Z,0
2016-12-12T00:42:06.108Z,0
2016-12-12T00:43:06.140Z,0
2016-12-12T00:44:06.095Z,0
2016-12-12T00:45:05.998Z,0
2016-12-12T00:46:06.113Z,0
2016-12-12T00:47:06.115Z,0
2016-12-12T00:48:06.310Z,0
2016-12-12T00:49:06.925Z,0
2016-12-12T00:50:06.101Z,0
2016-12-12T00:51:06.472Z,0
2016-12-12T00:52:06.700Z,0
2016-12-12T00:53:06.366Z,0
2016-12-12T00:54:07.224Z,0
2016-12-12T00:55:06.856Z,0
2016-12-12T00:56:06.105Z,0
2016-12-12T00:57:06.066Z,0
2016-12-12T00:58:06.091Z,0
2016-12-12T00:59:06.044Z,0
2016-12-12T01:00:06.130Z,0
2016-12-12T01:01:06.005Z,0
2016-12-12T01:02:06.036Z,0
2016-12-12T01:03:06.017Z,0
2016-12-12T01:04:06.116Z,0
2016-12-12T01:05:06.056Z,0
2016-12-12T01:06:06.126Z,0
2016-12-12T01:07:06.185Z,0
2016-12-12T01:08:06.315Z,0
2016-12-12T01:09:06.128Z,0
2016-12-12T01:10:06.085Z,0
2016-12-12T01:11:06.102Z,0
2016-12-12T01:12:06.054Z,0
2016-12-12T01:13:06.088Z,0
2016-12-12T01:14:06.155Z,0
2016-12-12T01:15:06.216Z,0
2016-12-12T01:16:06.160Z,0
2016-12-12T01:17:06.099Z,0
2016-12-12T01:18:06.178Z,0
2016-12-12T01:19:06.169Z,0
2016-12-12T01:20:06.151Z,0
2016-12-12T01:21:06.203Z,0
2016-12-12T01:22:06.197Z,0
2016-12-12T01:23:06.381Z,0
2016-12-12T01:24:06.187Z,0
2016-12-12T01:25:06.368Z,0
2016-12-12T01:26:06.217Z,0
2016-12-12T01:27:06.109Z,0
2016-12-12T01:28:06.184Z,0
2016-12-12T01:29:06.195Z,0
2016-12-12T01:30:06.117Z,0
2016-12-12T01:31:06.045Z,0
2016-12-12T01:32:06.117Z,0
2016-12-12T01:33:06.104Z,0
2016-12-12T01:34:06.205Z,0
2016-12-12T01:35:06.168Z,0
2016-12-12T01:36:06.204Z,0
2016-12-12T01:37:06.237Z,0
2016-12-12T01:38:06.198Z,0
2016-12-12T01:39:06.096Z,0
2016-12-12T01:40:06.177Z,0
2016-12-12T01:41:06.206Z,0
2016-12-12T01:42:06.161Z,0
2016-12-12T01:43:06.100Z,0
2016-12-12T01:44:06.154Z,0
2016-12-12T01:45:06.121Z,0
2016-12-12T01:46:06.135Z,0
2016-12-12T01:47:06.116Z,0
2016-12-12T01:48:06.233Z,0
2016-12-12T01:49:06.317Z,0
2016-12-12T01:50:06.187Z,0
2016-12-12T01:51:06.177Z,0
2016-12-12T01:52:06.186Z,0
2016-12-12T01:53:06.247Z,0
2016-12-12T01:54:06.206Z,0
2016-12-12T01:55:06.476Z,0
2016-12-12T01:56:06.616Z,0
2016-12-12T01:57:06.196Z,0
2016-12-12T01:58:06.229Z,0
2016-12-12T01:59:06.382Z,0
2016-12-12T02:00:06.281Z,0
2016-12-12T02:01:06.199Z,0
2016-12-12T02:02:06.186Z,0
2016-12-12T02:03:06.183Z,0
2016-12-12T02:04:06.129Z,0
2016-12-12T02:05:06.151Z,0
2016-12-12T02:06:06.197Z,0
2016-12-12T02:07:06.171Z,0
2016-12-12T02:08:06.183Z,0
2016-12-12T02:09:06.179Z,0
2016-12-12T02:10:06.207Z,0
2016-12-12T02:11:06.127Z,0
2016-12-12T02:12:06.172Z,0
2016-12-12T02:13:06.043Z,0
2016-12-12T02:14:06.210Z,0
2016-12-12T02:15:06.348Z,0
2016-12-12T02:16:06.190Z,0
2016-12-12T02:17:06.408Z,0
2016-12-12T02:18:06.129Z,0
2016-12-12T02:19:06.334Z,0
2016-12-12T02:20:06.148Z,0
2016-12-12T02:21:06.255Z,0
2016-12-12T02:22:06.169Z,0
2016-12-12T02:23:06.080Z,0
2016-12-12T02:24:07.546Z,0
2016-12-12T02:25:06.119Z,0
2016-12-12T02:26:06.215Z,0
2016-12-12T02:27:06.108Z,0
2016-12-12T02:28:06.247Z,0
2016-12-12T02:29:06.115Z,0
2016-12-12T02:30:06.192Z,0
2016-12-12T02:31:06.137Z,0
2016-12-12T02:32:06.204Z,0
2016-12-12T02:33:06.117Z,0
2016-12-12T02:34:06.146Z,0
2016-12-12T02:35:06.181Z,0
2016-12-12T02:36:06.185Z,0
2016-12-12T02:37:06.256Z,0
2016-12-12T02:38:06.220Z,0
2016-12-12T02:39:06.142Z,0
2016-12-12T02:40:06.227Z,0
2016-12-12T02:41:06.235Z,0
2016-12-12T02:42:06.238Z,0
2016-12-12T02:43:06.489Z,0
2016-12-12T02:44:06.308Z,0
2016-12-12T02:45:06.302Z,0
2016-12-12T02:46:06.250Z,0
2016-12-12T02:47:06.236Z,0
2016-12-12T02:48:06.528Z,0
2016-12-12T02:49:06.136Z,0
2016-12-12T02:50:06.156Z,0
2016-12-12T02:51:06.239Z,0
2016-12-12T02:52:06.238Z,0
2016-12-12T02:53:06.414Z,0
2016-12-12T02:54:06.225Z,0
2016-12-12T02:55:06.260Z,0
2016-12-12T02:56:06.251Z,0
2016-12-12T02:57:06.812Z,0
2016-12-12T02:58:06.189Z,0
2016-12-12T02:59:06.257Z,0
2016-12-12T03:00:06.218Z,0
2016-12-12T03:01:06.210Z,0
2016-12-12T03:02:06.264Z,0
2016-12-12T03:03:06.156Z,0
2016-12-12T03:04:06.197Z,0
2016-12-12T03:05:06.292Z,0
2016-12-12T03:06:06.138Z,0
2016-12-12T03:07:06.139Z,0
2016-12-12T03:08:06.190Z,0
2016-12-12T03:09:06.375Z,0
2016-12-12T03:10:06.268Z,0
2016-12-12T03:11:06.256Z,0
2016-12-12T03:12:06.213Z,0
2016-12-12T03:13:06.288Z,0
2016-12-12T03:14:06.240Z,0
2016-12-12T03:15:06.372Z,0
2016-12-12T03:16:06.236Z,0
2016-12-12T03:17:06.176Z,0
2016-12-12T03:18:06.232Z,0
2016-12-12T03:19:06.099Z,0
2016-12-12T03:20:06.327Z,0
2016-12-12T03:21:06.306Z,0
2016-12-12T03:22:06.209Z,0
2016-12-12T03:23:06.180Z,0
2016-12-12T03:24:06.248Z,0
2016-12-12T03:25:06.182Z,0
2016-12-12T03:26:06.274Z,0
2016-12-12T03:27:06.256Z,0
2016-12-12T03:28:07.519Z,0
2016-12-12T03:29:06.368Z,0
2016-12-12T03:30:06.285Z,0
2016-12-12T03:31:06.260Z,0
2016-12-12T03:32:06.234Z,0
2016-12-12T03:33:06.394Z,0
2016-12-12T03:34:06.308Z,0
2016-12-12T03:35:06.309Z,0
2016-12-12T03:36:06.165Z,0
2016-12-12T03:37:06.172Z,0
2016-12-12T03:38:06.301Z,0
2016-12-12T03:39:06.228Z,0
2016-12-12T03:40:06.238Z,0
2016-12-12T03:41:06.229Z,0
2016-12-12T03:42:06.390Z,0
2016-12-12T03:43:06.140Z,0
2016-12-12T03:44:06.182Z,0
2016-12-12T03:45:06.415Z,0
2016-12-12T03:46:06.227Z,0
2016-12-12T03:47:06.298Z,0
2016-12-12T03:48:06.269Z,0
2016-12-12T03:49:06.199Z,0
2016-12-12T03:50:06.247Z,0
2016-12-12T03:51:06.331Z,0
2016-12-12T03:52:06.308Z,0
2016-12-12T03:53:06.569Z,0
2016-12-12T03:54:06.275Z,0
2016-12-12T03:55:06.566Z,0
2016-12-12T03:56:06.209Z,0
2016-12-12T03:57:06.247Z,0
2016-12-12T03:58:06.298Z,0
2016-12-12T03:59:06.277Z,0
2016-12-12T04:00:06.267Z,0
2016-12-12T04:01:06.250Z,0
2016-12-12T04:02:06.195Z,0
2016-12-12T04:03:06.190Z,0
2016-12-12T04:04:06.272Z,0
2016-12-12T04:05:06.363Z,0
2016-12-12T04:06:06.290Z,0
2016-12-12T04:07:06.227Z,0
2016-12-12T04:08:06.266Z,0
2016-12-12T04:09:06.296Z,0
2016-12-12T04:10:06.337Z,0
2016-12-12T04:11:06.288Z,0
2016-12-12T04:12:06.275Z,0
2016-12-12T04:13:06.613Z,0
2016-12-12T04:14:06.332Z,0
2016-12-12T04:15:06.289Z,0
2016-12-12T04:16:06.241Z,0
2016-12-12T04:17:06.254Z,0
2016-12-12T04:18:06.337Z,0
2016-12-12T04:19:06.180Z,0
2016-12-12T04:20:06.286Z,0
2016-12-12T04:21:06.449Z,0
2016-12-12T04:22:06.322Z,0
2016-12-12T04:23:06.553Z,0
2016-12-12T04:24:06.406Z,0
2016-12-12T04:25:07.338Z,0
2016-12-12T04:26:06.233Z,0
2016-12-12T04:27:06.486Z,0
2016-12-12T04:28:06.266Z,0
2016-12-12T04:29:06.247Z,0
2016-12-12T04:30:06.356Z,0
2016-12-12T04:31:06.380Z,0
2016-12-12T04:32:06.253Z,0
2016-12-12T04:33:06.399Z,0
2016-12-12T04:34:06.330Z,0
2016-12-12T04:35:06.426Z,0
2016-12-12T04:36:06.288Z,0
2016-12-12T04:37:06.294Z,0
2016-12-12T04:38:06.331Z,0
2016-12-12T04:39:06.276Z,0
2016-12-12T04:40:06.390Z,0
2016-12-12T04:41:06.321Z,0
2016-12-12T04:42:06.195Z,0
2016-12-12T04:43:06.216Z,0
2016-12-12T04:44:06.285Z,0
2016-12-12T04:45:06.323Z,0
2016-12-12T04:46:06.272Z,0
2016-12-12T04:47:06.274Z,0
2016-12-12T04:48:06.289Z,0
2016-12-12T04:49:16.330Z,0
2016-12-12T04:50:06.377Z,0
2016-12-12T04:51:06.293Z,0
2016-12-12T04:52:06.393Z,0
2016-12-12T04:53:07.052Z,0
2016-12-12T04:54:06.329Z,0
2016-12-12T04:55:06.387Z,0
2016-12-12T04:56:06.294Z,0
2016-12-12T04:57:06.213Z,0
2016-12-12T04:58:06.335Z,0
2016-12-12T04:59:06.368Z,0
2016-12-12T05:00:06.276Z,0
2016-12-12T05:01:06.283Z,0
2016-12-12T05:02:06.267Z,0
2016-12-12T05:03:06.259Z,0
2016-12-12T05:04:06.311Z,0
2016-12-12T05:05:06.292Z,0
2016-12-12T05:06:06.297Z,0
2016-12-12T05:07:06.304Z,0
2016-12-12T05:08:06.292Z,0
2016-12-12T05:09:06.297Z,0
2016-12-12T05:10:06.312Z,0
2016-12-12T05:11:06.478Z,0
2016-12-12T05:12:06.298Z,0
2016-12-12T05:13:06.654Z,0
2016-12-12T05:14:06.431Z,0
2016-12-12T05:15:06.418Z,0
2016-12-12T05:16:06.340Z,0
2016-12-12T05:17:06.521Z,0
2016-12-12T05:18:06.273Z,0
2016-12-12T05:19:06.391Z,0
2016-12-12T05:20:06.374Z,0
2016-12-12T05:21:06.393Z,0
2016-12-12T05:22:06.328Z,0
2016-12-12T05:23:06.347Z,0
2016-12-12T05:24:06.374Z,0
2016-12-12T05:25:06.346Z,0
2016-12-12T05:26:06.411Z,0
2016-12-12T05:27:06.374Z,0
2016-12-12T05:28:07.027Z,0
2016-12-12T05:29:06.516Z,0
2016-12-12T05:30:06.320Z,0
2016-12-12T05:31:06.457Z,0
2016-12-12T05:32:06.407Z,0
2016-12-12T05:33:06.463Z,0
2016-12-12T05:34:06.361Z,0
2016-12-12T05:35:06.572Z,0
2016-12-12T05:36:06.297Z,0
2016-12-12T05:37:06.423Z,0
2016-12-12T05:38:06.309Z,0
2016-12-12T05:39:06.533Z,0
2016-12-12T05:40:06.530Z,0
2016-12-12T05:41:06.653Z,0
2016-12-12T05:42:06.402Z,0
2016-12-12T05:43:06.335Z,0
2016-12-12T05:44:06.451Z,0
2016-12-12T05:45:06.464Z,0
2016-12-12T05:46:06.339Z,0
2016-12-12T05:47:06.562Z,0
2016-12-12T05:48:06.437Z,0
2016-12-12T05:49:06.563Z,0
2016-12-12T05:50:06.340Z,0
2016-12-12T05:51:06.585Z,0
2016-12-12T05:52:07.042Z,0
2016-12-12T05:53:06.342Z,0
2016-12-12T05:54:06.373Z,0
2016-12-12T05:55:06.588Z,0
2016-12-12T05:56:06.403Z,0
2016-12-12T05:57:06.464Z,0
2016-12-12T05:58:06.394Z,0
2016-12-12T05:59:06.339Z,0
2016-12-12T06:00:06.404Z,0
2016-12-12T06:01:06.655Z,0
2016-12-12T06:02:06.982Z,0
2016-12-12T06:03:06.440Z,0
2016-12-12T06:04:06.403Z,0
2016-12-12T06:05:06.928Z,0
2016-12-12T06:06:06.455Z,0
2016-12-12T06:07:06.594Z,0
2016-12-12T06:08:06.424Z,0
2016-12-12T06:09:06.566Z,0
2016-12-12T06:10:06.493Z,0
2016-12-12T06:11:06.587Z,0
2016-12-12T06:12:06.414Z,0
2016-12-12T06:13:11.371Z,0
2016-12-12T06:14:06.542Z,0
2016-12-12T06:15:07.374Z,0
2016-12-12T06:16:06.467Z,0
2016-12-12T06:17:06.483Z,0
2016-12-12T06:18:07.025Z,0
2016-12-12T06:19:06.381Z,0
2016-12-12T06:20:06.432Z,0
2016-12-12T06:21:07.123Z,0
2016-12-12T06:22:06.460Z,0
2016-12-12T06:23:06.609Z,0
2016-12-12T06:24:07.083Z,0
2016-12-12T06:25:07.945Z,0
2016-12-12T06:26:06.381Z,0
2016-12-12T06:27:06.746Z,0
2016-12-12T06:28:06.387Z,0
2016-12-12T06:29:07.515Z,0
2016-12-12T06:30:07.139Z,0
2016-12-12T06:31:06.423Z,0
2016-12-12T06:32:06.374Z,0
2016-12-12T06:33:06.623Z,0
2016-12-12T06:34:06.361Z,0
2016-12-12T06:35:06.938Z,0
2016-12-12T06:36:06.445Z,0
2016-12-12T06:37:06.558Z,0
2016-12-12T06:38:06.494Z,0
2016-12-12T06:39:06.671Z,0
2016-12-12T06:40:06.520Z,0
2016-12-12T06:41:06.621Z,0
2016-12-12T06:42:06.461Z,0
2016-12-12T06:43:06.640Z,0
2016-12-12T06:44:06.451Z,0
2016-12-12T06:45:06.466Z,0
2016-12-12T06:46:06.507Z,0
2016-12-12T06:47:06.615Z,0
2016-12-12T06:48:06.454Z,0
2016-12-12T06:49:06.531Z,0
2016-12-12T06:50:06.455Z,0
2016-12-12T06:51:06.616Z,0
2016-12-12T06:52:06.449Z,0
2016-12-12T06:53:06.716Z,0
2016-12-12T06:54:06.476Z,0
2016-12-12T06:55:06.736Z,0
2016-12-12T06:56:06.464Z,0
2016-12-12T06:57:06.614Z,0
2016-12-12T06:58:06.585Z,0
2016-12-12T06:59:06.790Z,0
2016-12-12T07:00:06.657Z,0
2016-12-12T07:01:06.705Z,0
2016-12-12T07:02:06.468Z,0
2016-12-12T07:03:06.623Z,0
2016-12-12T07:04:06.464Z,0
2016-12-12T07:05:06.635Z,0
2016-12-12T07:06:06.438Z,0
2016-12-12T07:07:06.464Z,0
2016-12-12T07:08:06.550Z,0
2016-12-12T07:09:06.661Z,0
2016-12-12T07:10:06.541Z,0
2016-12-12T07:11:06.515Z,0
2016-12-12T07:12:06.524Z,0
2016-12-12T07:13:06.615Z,0
2016-12-12T07:14:06.464Z,0
2016-12-12T07:15:09.309Z,0
2016-12-12T07:16:06.596Z,0
2016-12-12T07:17:06.615Z,0
2016-12-12T07:18:06.485Z,0
2016-12-12T07:19:06.618Z,0
2016-12-12T07:20:06.552Z,0
2016-12-12T07:21:06.668Z,0
2016-12-12T07:22:06.561Z,0
2016-12-12T07:23:06.648Z,0
2016-12-12T07:24:06.428Z,5
2016-12-12T07:25:06.775Z,5
2016-12-12T07:26:06.484Z,5
2016-12-12T07:27:06.513Z,5
2016-12-12T07:28:06.509Z,5
2016-12-12T07:29:06.658Z,5
2016-12-12T07:30:06.525Z,5
2016-12-12T07:31:06.582Z,5
2016-12-12T07:32:06.518Z,5
2016-12-12T07:33:06.667Z,5
2016-12-12T07:34:06.496Z,5
2016-12-12T07:35:06.631Z,5
2016-12-12T07:36:06.476Z,10
2016-12-12T07:37:06.585Z,10
2016-12-12T07:38:06.482Z,10
2016-12-12T07:39:06.772Z,10
2016-12-12T07:40:06.751Z,10
2016-12-12T07:41:06.813Z,10
2016-12-12T07:42:06.525Z,15
2016-12-12T07:43:06.656Z,15
2016-12-12T07:44:06.522Z,15
2016-12-12T07:45:06.735Z,15
2016-12-12T07:46:06.496Z,15
2016-12-12T07:47:06.619Z,15
2016-12-12T07:48:06.519Z,15
2016-12-12T07:49:06.482Z,15
2016-12-12T07:50:16.630Z,15
2016-12-12T07:51:06.648Z,15
2016-12-12T07:52:06.617Z,15
2016-12-12T07:53:06.688Z,15
2016-12-12T07:54:06.526Z,15
2016-12-12T07:55:06.707Z,20
2016-12-12T07:56:06.542Z,25
2016-12-12T07:57:06.589Z,30
2016-12-12T07:58:06.727Z,30
2016-12-12T07:59:06.687Z,30
2016-12-12T08:00:06.572Z,35
2016-12-12T08:01:06.832Z,35
2016-12-12T08:02:06.586Z,35
2016-12-12T08:03:06.853Z,30
2016-12-12T08:04:06.556Z,30
2016-12-12T08:05:06.818Z,35
2016-12-12T08:06:06.586Z,35
2016-12-12T08:07:07.758Z,35
2016-12-12T08:08:06.617Z,40
2016-12-12T08:09:06.976Z,35
2016-12-12T08:10:06.543Z,30
2016-12-12T08:11:06.764Z,30
2016-12-12T08:12:06.621Z,35
2016-12-12T08:13:06.673Z,40
2016-12-12T08:14:06.585Z,45
2016-12-12T08:15:06.655Z,50
2016-12-12T08:16:06.707Z,50
2016-12-12T08:17:06.671Z,50
2016-12-12T08:18:06.565Z,55
2016-12-12T08:19:06.926Z,55
2016-12-12T08:20:06.569Z,60
2016-12-12T08:21:06.728Z,70
2016-12-12T08:22:06.594Z,75
2016-12-12T08:23:06.673Z,70
2016-12-12T08:24:06.622Z,70
2016-12-12T08:25:06.734Z,65
2016-12-12T08:26:06.508Z,70
2016-12-12T08:27:06.855Z,75
2016-12-12T08:28:06.579Z,80
2016-12-12T08:29:07.310Z,85
2016-12-12T08:30:06.699Z,95
2016-12-12T08:31:06.801Z,95
2016-12-12T08:32:06.874Z,85
2016-12-12T08:33:07.020Z,85
2016-12-12T08:34:06.540Z,90
2016-12-12T08:35:06.728Z,105
2016-12-12T08:36:06.603Z,110
2016-12-12T08:37:07.418Z,115
2016-12-12T08:38:06.589Z,120
2016-12-12T08:39:06.788Z,125
2016-12-12T08:40:06.859Z,120
2016-12-12T08:41:06.809Z,115
2016-12-12T08:42:06.688Z,115
2016-12-12T08:43:16.696Z,135
2016-12-12T08:44:06.602Z,145
2016-12-12T08:45:06.804Z,160
2016-12-12T08:46:06.599Z,165
2016-12-12T08:47:06.749Z,165
2016-12-12T08:48:06.591Z,155
2016-12-12T08:49:06.777Z,155
2016-12-12T08:50:06.701Z,170
2016-12-12T08:51:06.681Z,180
2016-12-12T08:52:06.596Z,185
2016-12-12T08:53:06.635Z,190
2016-12-12T08:54:06.701Z,200
2016-12-12T08:55:06.710Z,190
2016-12-12T08:56:06.672Z,180
2016-12-12T08:57:06.834Z,185
2016-12-12T08:58:06.580Z,200
2016-12-12T08:59:06.837Z,205
2016-12-12T09:00:06.672Z,205
2016-12-12T09:01:06.953Z,210
2016-12-12T09:02:06.572Z,210
2016-12-12T09:03:06.638Z,210
2016-12-12T09:04:10.719Z,205
2016-12-12T09:05:06.786Z,200
2016-12-12T09:06:06.654Z,185
2016-12-12T09:07:06.712Z,160
2016-12-12T09:08:06.612Z,155
2016-12-12T09:09:06.785Z,165
2016-12-12T09:10:06.684Z,185
2016-12-12T09:11:06.712Z,185
2016-12-12T09:12:07.133Z,185
2016-12-12T09:13:06.770Z,185
2016-12-12T09:14:06.636Z,180
2016-12-12T09:15:06.905Z,170
2016-12-12T09:16:06.626Z,170
2016-12-12T09:17:06.757Z,165
2016-12-12T09:18:06.678Z,160
2016-12-12T09:19:06.766Z,150
2016-12-12T09:20:06.631Z,155
2016-12-12T09:21:06.746Z,175
2016-12-12T09:22:06.642Z,145
2016-12-12T09:23:06.820Z,160
2016-12-12T09:24:06.585Z,170
2016-12-12T09:25:06.769Z,145
2016-12-12T09:26:07.689Z,135
2016-12-12T09:27:06.795Z,130
2016-12-12T09:28:06.710Z,120
2016-12-12T09:29:06.798Z,110
2016-12-12T09:30:06.881Z,115
2016-12-12T09:31:06.702Z,125
2016-12-12T09:32:06.641Z,145
2016-12-12T09:33:06.624Z,160
2016-12-12T09:34:06.686Z,125
2016-12-12T09:35:06.715Z,105
2016-12-12T09:36:06.688Z,105
2016-12-12T09:37:07.304Z,105
2016-12-12T09:38:06.735Z,110
2016-12-12T09:39:06.976Z,120
2016-12-12T09:40:06.841Z,120
2016-12-12T09:41:06.872Z,120
2016-12-12T09:42:06.696Z,115
2016-12-12T09:43:06.781Z,120
2016-12-12T09:44:06.774Z,120
2016-12-12T09:45:06.830Z,110
2016-12-12T09:46:06.728Z,110
2016-12-12T09:47:06.820Z,115
2016-12-12T09:48:06.755Z,110
2016-12-12T09:49:06.876Z,110
2016-12-12T09:50:06.739Z,110
2016-12-12T09:51:06.958Z,115
2016-12-12T09:52:06.705Z,125
2016-12-12T09:53:07.043Z,130
2016-12-12T09:54:06.760Z,130
2016-12-12T09:55:07.229Z,125
2016-12-12T09:56:06.701Z,125
2016-12-12T09:57:06.786Z,120
2016-12-12T09:58:06.764Z,115
2016-12-12T09:59:06.697Z,115
2016-12-12T10:00:06.692Z,95
2016-12-12T10:01:06.919Z,85
2016-12-12T10:02:06.818Z,80
2016-12-12T10:03:06.704Z,75
2016-12-12T10:04:06.835Z,80
2016-12-12T10:05:06.866Z,95
2016-12-12T10:06:06.670Z,105
2016-12-12T10:07:06.883Z,115
2016-12-12T10:08:06.697Z,120
2016-12-12T10:09:06.859Z,110
2016-12-12T10:10:06.826Z,115
2016-12-12T10:11:06.843Z,110
2016-12-12T10:12:06.667Z,105
2016-12-12T10:13:07.039Z,105
2016-12-12T10:14:06.873Z,125
2016-12-12T10:15:06.988Z,135
2016-12-12T10:16:06.775Z,120
2016-12-12T10:17:06.978Z,100
2016-12-12T10:18:06.956Z,90
2016-12-12T10:19:06.709Z,90
2016-12-12T10:20:06.696Z,105
2016-12-12T10:21:06.872Z,130
2016-12-12T10:22:06.722Z,160
2016-12-12T10:23:06.880Z,160
2016-12-12T10:24:06.754Z,135
2016-12-12T10:25:07.860Z,115
2016-12-12T10:26:06.707Z,110
2016-12-12T10:27:06.753Z,110
2016-12-12T10:28:06.908Z,105
2016-12-12T10:29:07.127Z,110
2016-12-12T10:30:06.921Z,130
2016-12-12T10:31:06.916Z,125
2016-12-12T10:32:06.757Z,115
2016-12-12T10:33:06.998Z,115
2016-12-12T10:34:06.968Z,120
2016-12-12T10:35:07.087Z,130
2016-12-12T10:36:07.083Z,125
2016-12-12T10:37:06.857Z,125
2016-12-12T10:38:06.850Z,145
2016-12-12T10:39:06.907Z,150
2016-12-12T10:40:07.069Z,130
2016-12-12T10:41:07.117Z,110
2016-12-12T10:42:06.976Z,105
2016-12-12T10:43:06.947Z,105
2016-12-12T10:44:06.918Z,105
2016-12-12T10:45:07.126Z,100
2016-12-12T10:46:06.916Z,110
2016-12-12T10:47:06.959Z,115
2016-12-12T10:48:06.796Z,105
2016-12-12T10:49:06.926Z,105
2016-12-12T10:50:06.977Z,105
2016-12-12T10:51:06.946Z,110
2016-12-12T10:52:06.922Z,110
2016-12-12T10:53:07.007Z,105
2016-12-12T10:54:06.832Z,100
2016-12-12T10:55:06.910Z,100
2016-12-12T10:56:06.865Z,95
2016-12-12T10:57:06.897Z,90
2016-12-12T10:58:06.819Z,80
2016-12-12T10:59:06.911Z,80
2016-12-12T11:00:07.590Z,80
2016-12-12T11:01:06.947Z,75
2016-12-12T11:02:06.840Z,70
2016-12-12T11:03:06.912Z,65
2016-12-12T11:04:06.815Z,65
2016-12-12T11:05:07.046Z,65
2016-12-12T11:06:06.859Z,70
2016-12-12T11:07:06.897Z,75
2016-12-12T11:08:06.909Z,80
2016-12-12T11:09:06.906Z,80
2016-12-12T11:10:07.256Z,80
2016-12-12T11:11:07.081Z,85
2016-12-12T11:12:07.199Z,95
2016-12-12T11:13:07.091Z,115
2016-12-12T11:14:07.187Z,105
2016-12-12T11:15:07.016Z,95
2016-12-12T11:16:06.835Z,105
2016-12-12T11:17:07.088Z,120
2016-12-12T11:18:06.918Z,105
2016-12-12T11:19:07.027Z,105
2016-12-12T11:20:06.987Z,110
2016-12-12T11:21:07.027Z,120
2016-12-12T11:22:06.907Z,105
2016-12-12T11:23:07.464Z,95
2016-12-12T11:24:06.985Z,90
2016-12-12T11:25:07.053Z,90
2016-12-12T11:26:07.060Z,85
2016-12-12T11:27:07.065Z,90
2016-12-12T11:28:07.083Z,100
2016-12-12T11:29:07.000Z,115
2016-12-12T11:30:06.839Z,125
2016-12-12T11:31:06.953Z,135
2016-12-12T11:32:06.870Z,140
2016-12-12T11:33:06.957Z,140
2016-12-12T11:34:06.977Z,145
2016-12-12T11:35:06.984Z,155
2016-12-12T11:36:07.477Z,170
2016-12-12T11:37:06.930Z,170
2016-12-12T11:38:07.025Z,180
2016-12-12T11:39:06.965Z,205
2016-12-12T11:40:07.041Z,235
2016-12-12T11:41:07.201Z,255
2016-12-12T11:42:07.006Z,245
2016-12-12T11:43:06.858Z,230
2016-12-12T11:44:08.256Z,235
2016-12-12T11:45:07.654Z,230
2016-12-12T11:46:07.149Z,215
2016-12-12T11:47:07.235Z,210
2016-12-12T11:48:07.063Z,210
2016-12-12T11:49:07.051Z,215
2016-12-12T11:50:07.006Z,220
2016-12-12T11:51:06.977Z,215
2016-12-12T11:52:07.100Z,200
2016-12-12T11:53:07.022Z,190
2016-12-12T11:54:07.067Z,180
2016-12-12T11:55:07.658Z,185
2016-12-12T11:56:06.917Z,210
2016-12-12T11:57:06.945Z,220
2016-12-12T11:58:06.860Z,220
2016-12-12T11:59:06.919Z,215
2016-12-12T12:00:06.872Z,200
2016-12-12T12:01:06.986Z,180
2016-12-12T12:02:06.991Z,125
2016-12-12T12:03:06.955Z,85
2016-12-12T12:04:06.988Z,65
2016-12-12T12:05:07.185Z,65
2016-12-12T12:06:07.019Z,75
2016-12-12T12:07:07.039Z,85
2016-12-12T12:08:06.836Z,100
2016-12-12T12:09:07.108Z,110
2016-12-12T12:10:07.045Z,120
2016-12-12T12:11:07.011Z,135
2016-12-12T12:12:06.867Z,145
2016-12-12T12:13:07.198Z,170
2016-12-12T12:14:06.787Z,190
2016-12-12T12:15:07.181Z,195
2016-12-12T12:16:06.950Z,190
2016-12-12T12:17:07.018Z,170
2016-12-12T12:18:06.965Z,150
2016-12-12T12:19:07.014Z,130
2016-12-12T12:20:07.176Z,115
2016-12-12T12:21:07.191Z,110
2016-12-12T12:22:07.074Z,110
2016-12-12T12:23:07.119Z,100
2016-12-12T12:24:07.139Z,95
2016-12-12T12:25:07.065Z,90
2016-12-12T12:26:07.073Z,85
2016-12-12T12:27:07.067Z,85
2016-12-12T12:28:06.886Z,85
2016-12-12T12:29:06.995Z,85
2016-12-12T12:30:07.068Z,85
2016-12-12T12:31:07.763Z,85
2016-12-12T12:32:06.878Z,85
2016-12-12T12:33:07.089Z,90
2016-12-12T12:34:07.016Z,95
2016-12-12T12:35:07.087Z,100
2016-12-12T12:36:06.954Z,100
2016-12-12T12:37:06.994Z,95
2016-12-12T12:38:07.065Z,95
2016-12-12T12:39:07.046Z,95
2016-12-12T12:40:06.876Z,100
2016-12-12T12:41:07.175Z,110
2016-12-12T12:42:07.124Z,130
2016-12-12T12:43:07.127Z,150
2016-12-12T12:44:07.171Z,175
2016-12-12T12:45:07.146Z,175
2016-12-12T12:46:06.965Z,170
2016-12-12T12:47:06.903Z,180
2016-12-12T12:48:07.092Z,185
2016-12-12T12:49:07.003Z,195
2016-12-12T12:50:06.954Z,215
2016-12-12T12:51:07.034Z,240
2016-12-12T12:52:06.975Z,235
2016-12-12T12:53:07.258Z,225
2016-12-12T12:54:07.052Z,215
2016-12-12T12:55:07.166Z,205
2016-12-12T12:56:07.007Z,200
2016-12-12T12:57:07.039Z,205
2016-12-12T12:58:07.051Z,200
2016-12-12T12:59:07.041Z,190
2016-12-12T13:00:07.035Z,205
2016-12-12T13:01:06.986Z,220
2016-12-12T13:02:06.914Z,190
2016-12-12T13:03:06.982Z,210
2016-12-12T13:04:07.159Z,225
2016-12-12T13:05:07.421Z,205
2016-12-12T13:06:06.986Z,190
2016-12-12T13:07:07.180Z,170
2016-12-12T13:08:07.083Z,145
2016-12-12T13:09:07.174Z,130
2016-12-12T13:10:07.423Z,115
2016-12-12T13:11:07.076Z,110
2016-12-12T13:12:06.973Z,110
2016-12-12T13:13:07.144Z,105
2016-12-12T13:14:07.119Z,105
2016-12-12T13:15:07.140Z,100
2016-12-12T13:16:07.016Z,110
2016-12-12T13:17:07.118Z,115
2016-12-12T13:18:07.069Z,115
2016-12-12T13:19:07.010Z,115
2016-12-12T13:20:07.093Z,115
2016-12-12T13:21:07.238Z,110
2016-12-12T13:22:07.105Z,110
2016-12-12T13:23:07.191Z,105
2016-12-12T13:24:06.929Z,95
2016-12-12T13:25:07.200Z,90
2016-12-12T13:26:07.287Z,85
2016-12-12T13:27:07.079Z,80
2016-12-12T13:28:07.155Z,75
2016-12-12T13:29:07.079Z,70
2016-12-12T13:30:07.190Z,65
2016-12-12T13:31:07.169Z,60
2016-12-12T13:32:07.085Z,55
2016-12-12T13:33:07.142Z,55
2016-12-12T13:34:07.084Z,50
2016-12-12T13:35:07.264Z,50
2016-12-12T13:36:07.108Z,45
2016-12-12T13:37:07.066Z,45
2016-12-12T13:38:07.134Z,40
2016-12-12T13:39:07.100Z,40
2016-12-12T13:40:07.052Z,40
2016-12-12T13:41:07.068Z,40
2016-12-12T13:42:07.148Z,40
2016-12-12T13:43:07.094Z,35
2016-12-12T13:44:07.126Z,35
2016-12-12T13:45:07.271Z,30
2016-12-12T13:46:07.044Z,30
2016-12-12T13:47:07.037Z,30
2016-12-12T13:48:07.207Z,25
2016-12-12T13:49:07.303Z,30
2016-12-12T13:50:07.233Z,30
2016-12-12T13:51:07.893Z,30
2016-12-12T13:52:07.132Z,30
2016-12-12T13:53:07.084Z,30
2016-12-12T13:54:06.960Z,30
2016-12-12T13:55:07.187Z,30
2016-12-12T13:56:06.942Z,30
2016-12-12T13:57:07.113Z,30
2016-12-12T13:58:07.153Z,30
2016-12-12T13:59:07.067Z,30
2016-12-12T14:00:07.009Z,30
2016-12-12T14:01:07.041Z,30
2016-12-12T14:02:08.128Z,30
2016-12-12T14:03:07.175Z,30
2016-12-12T14:04:07.352Z,30
2016-12-12T14:05:07.085Z,30
2016-12-12T14:06:07.140Z,35
2016-12-12T14:07:07.233Z,35
2016-12-12T14:08:07.181Z,40
2016-12-12T14:09:07.002Z,40
2016-12-12T14:10:07.185Z,45
2016-12-12T14:11:07.203Z,45
2016-12-12T14:12:07.230Z,45
2016-12-12T14:13:07.189Z,40
2016-12-12T14:14:07.150Z,40
2016-12-12T14:15:07.279Z,40
2016-12-12T14:16:07.249Z,40
2016-12-12T14:17:07.308Z,40
2016-12-12T14:18:07.137Z,40
2016-12-12T14:19:07.099Z,45
2016-12-12T14:20:07.424Z,45
2016-12-12T14:21:07.243Z,50
2016-12-12T14:22:07.138Z,55
2016-12-12T14:23:07.260Z,55